Time;durP1;ratioP1;P1;durP2;ratioP2;P2;SDS_P1;SDS_P2;PMS_P1;PMS_P2;Temp;Humidity;BMP_temperature;BMP_pressure;BME280_temperature;BME280_humidity;BME280_pressure;Samples;Min_cycle;Max_cycle;Signal;HPM_P1;HPM_P2
2022/02/21 00:00:09;;;;;;;4.13;0.90;;;8.50;90.50;;;;;;6150586;22;99894;-79
2022/02/21 00:02:42;;;;;;;4.38;0.90;;;8.40;90.40;;;;;;6151423;22;99270;-79
2022/02/21 00:05:14;;;;;;;5.97;1.65;;;8.30;90.30;;;;;;6151713;22;98448;-79
2022/02/21 00:07:44;;;;;;;5.50;1.40;;;8.30;90.20;;;;;;6125655;22;98550;-79
2022/02/21 00:10:12;;;;;;;3.30;1.02;;;8.20;90.20;;;;;;6124564;22;101811;-79
2022/02/21 00:12:40;;;;;;;7.95;1.00;;;8.20;90.20;;;;;;6124483;22;101986;-79
2022/02/21 00:15:08;;;;;;;7.38;1.20;;;8.20;90.20;;;;;;6151657;22;98743;-79
2022/02/21 00:17:35;;;;;;;6.68;1.52;;;8.10;90.20;;;;;;6152290;22;97750;-79
2022/02/21 00:20:02;;;;;;;4.05;1.20;;;8.10;90.50;;;;;;6099830;22;100408;-79
2022/02/21 00:22:29;;;;;;;6.78;1.40;;;8.10;90.40;;;;;;6099935;22;101496;-79
2022/02/21 00:24:56;;;;;;;8.73;1.92;;;8.10;90.40;;;;;;6124389;22;99211;-79
2022/02/21 00:27:23;;;;;;;6.30;1.55;;;8.00;90.40;;;;;;6151793;22;98444;-79
2022/02/21 00:29:50;;;;;;;4.78;1.80;;;8.00;90.20;;;;;;6151063;22;99255;-79
2022/02/21 00:32:17;;;;;;;9.70;2.00;;;7.90;89.80;;;;;;6124564;22;107342;-79
2022/02/21 00:34:45;;;;;;;8.73;1.98;;;7.90;89.50;;;;;;6125670;22;98516;-79
2022/02/21 00:37:12;;;;;;;13.15;2.35;;;7.90;89.60;;;;;;6125160;22;98994;-79
2022/02/21 00:39:39;;;;;;;12.20;2.88;;;8.00;89.60;;;;;;6151138;22;99137;-79
2022/02/21 00:42:07;;;;;;;15.57;3.08;;;7.90;89.80;;;;;;6124678;22;101449;-79
2022/02/21 00:44:34;;;;;;;11.80;2.47;;;8.00;89.30;;;;;;6075667;22;98482;-79
2022/02/21 00:47:01;;;;;;;13.25;2.78;;;7.90;88.90;;;;;;6100303;22;98482;-79
2022/02/21 00:49:28;;;;;;;9.52;2.17;;;7.90;88.40;;;;;;6150677;22;99981;-79
2022/02/21 00:51:58;;;;;;;20.10;2.72;;;7.90;88.30;;;;;;6099989;22;99591;-79
2022/02/21 00:54:26;;;;;;;11.55;2.30;;;7.90;88.50;;;;;;6125071;22;98454;-79
2022/02/21 00:56:54;;;;;;;16.05;2.72;;;7.90;88.30;;;;;;6124858;22;98512;-79
2022/02/21 00:59:21;;;;;;;12.05;2.85;;;8.00;88.10;;;;;;6150980;22;99324;-79
2022/02/21 01:01:48;;;;;;;15.75;2.70;;;7.90;87.40;;;;;;6124952;22;98984;-79
2022/02/21 01:04:15;;;;;;;11.15;2.80;;;7.90;87.70;;;;;;6124670;22;98496;-79
2022/02/21 01:06:42;;;;;;;16.08;3.05;;;7.90;87.80;;;;;;6125441;22;97736;-79
2022/02/21 01:09:09;;;;;;;14.05;2.80;;;8.00;87.70;;;;;;6099371;22;102041;-79
2022/02/21 01:11:36;;;;;;;16.20;3.38;;;8.00;88.20;;;;;;6150991;22;98882;-79
2022/02/21 01:14:03;;;;;;;9.63;2.03;;;8.00;88.60;;;;;;6124429;22;99193;-79
2022/02/21 01:16:30;;;;;;;16.40;3.05;;;8.00;87.80;;;;;;6101687;22;98901;-79
2022/02/21 01:18:59;;;;;;;14.48;2.45;;;8.00;87.70;;;;;;6151833;22;99320;-79
2022/02/21 01:21:26;;;;;;;13.50;2.55;;;7.90;87.40;;;;;;6124911;22;113833;-79
2022/02/21 01:23:53;;;;;;;14.73;2.95;;;7.90;87.80;;;;;;6152621;22;98380;-79
2022/02/21 01:26:20;;;;;;;11.45;2.33;;;7.90;88.00;;;;;;6125832;22;98523;-79
2022/02/21 01:28:48;;;;;;;14.60;3.08;;;7.90;87.40;;;;;;6126251;22;99169;-79
2022/02/21 01:31:15;;;;;;;17.30;2.85;;;7.90;86.80;;;;;;6126048;22;98998;-79
2022/02/21 01:33:42;;;;;;;14.05;2.78;;;7.90;87.00;;;;;;6101889;22;98543;-79
2022/02/21 01:36:10;;;;;;;19.45;3.10;;;7.90;85.30;;;;;;6126092;22;98594;-79
2022/02/21 01:38:37;;;;;;;10.25;2.60;;;7.90;85.60;;;;;;6099507;22;102425;-79
2022/02/21 01:41:04;;;;;;;14.27;2.42;;;7.90;85.30;;;;;;6125429;22;99639;-79
2022/02/21 01:43:31;;;;;;;12.82;2.50;;;7.90;84.60;;;;;;6152899;22;98453;-79
2022/02/21 01:45:58;;;;;;;12.07;2.03;;;7.80;83.70;;;;;;6126254;22;98878;-79
2022/02/21 01:48:25;;;;;;;15.02;2.30;;;7.80;83.30;;;;;;6125605;22;99456;-79
2022/02/21 01:50:52;;;;;;;13.32;2.70;;;7.80;83.80;;;;;;6152091;22;98985;-79
2022/02/21 01:53:19;;;;;;;15.27;2.80;;;7.80;83.30;;;;;;6152283;22;98538;-79
2022/02/21 01:55:46;;;;;;;15.20;3.65;;;7.80;82.80;;;;;;6153050;22;98209;-79
2022/02/21 01:58:14;;;;;;;13.80;2.50;;;7.80;82.80;;;;;;6100691;22;99301;-79
2022/02/21 02:00:41;;;;;;;12.10;2.90;;;7.80;81.90;;;;;;6125080;22;101740;-79
2022/02/21 02:03:08;;;;;;;20.48;3.20;;;7.80;82.30;;;;;;6151875;22;99244;-79
2022/02/21 02:05:35;;;;;;;12.88;2.63;;;7.80;82.10;;;;;;6125955;22;98575;-79
2022/02/21 02:08:02;;;;;;;17.73;3.33;;;7.70;82.20;;;;;;6151734;22;99282;-79
2022/02/21 02:10:31;;;;;;;16.15;3.08;;;7.70;82.20;;;;;;6151942;22;98698;-79
2022/02/21 02:12:58;;;;;;;14.52;2.63;;;7.70;82.10;;;;;;6152519;22;98684;-79
2022/02/21 02:15:25;;;;;;;16.15;3.10;;;7.70;82.60;;;;;;6152249;22;98434;-79
2022/02/21 02:17:52;;;;;;;13.60;3.05;;;7.70;82.60;;;;;;6151955;22;99343;-79
2022/02/21 02:20:19;;;;;;;12.60;2.88;;;7.60;82.10;;;;;;6125241;22;101720;-79
2022/02/21 02:22:46;;;;;;;17.50;3.63;;;7.60;82.80;;;;;;6152502;22;98390;-79
2022/02/21 02:25:13;;;;;;;8.98;2.20;;;7.60;83.80;;;;;;6125634;22;98573;-79
2022/02/21 02:27:41;;;;;;;15.52;2.88;;;7.60;83.40;;;;;;6150813;22;99952;-79
2022/02/21 02:30:08;;;;;;;14.07;2.33;;;7.60;84.00;;;;;;6124830;22;102097;-79
2022/02/21 02:32:36;;;;;;;16.45;2.90;;;7.60;83.90;;;;;;6125464;22;98481;-79
2022/02/21 02:35:04;;;;;;;15.18;2.88;;;7.50;83.90;;;;;;6101356;22;99332;-79
2022/02/21 02:37:31;;;;;;;16.17;3.88;;;7.50;83.70;;;;;;6124973;22;101905;-79
2022/02/21 02:39:58;;;;;;;9.98;2.33;;;7.50;83.60;;;;;;6151406;22;106826;-79
2022/02/21 02:42:25;;;;;;;14.32;2.55;;;7.40;83.00;;;;;;6152005;22;98366;-79
2022/02/21 02:44:52;;;;;;;15.52;2.25;;;7.40;83.20;;;;;;6126018;22;97860;-79
2022/02/21 02:47:19;;;;;;;15.88;2.95;;;7.40;81.80;;;;;;6151463;22;99298;-79
2022/02/21 02:49:46;;;;;;;22.27;3.80;;;7.40;82.00;;;;;;6152009;22;99045;-79
2022/02/21 02:52:13;;;;;;;12.02;2.70;;;7.40;81.80;;;;;;6125406;22;99250;-79
2022/02/21 02:54:40;;;;;;;12.98;2.75;;;7.30;81.00;;;;;;6126025;22;98538;-79
2022/02/21 02:57:07;;;;;;;15.98;3.10;;;7.30;81.20;;;;;;6100397;22;99302;-79
2022/02/21 02:59:34;;;;;;;11.70;2.13;;;7.20;80.50;;;;;;6151652;22;99041;-79
2022/02/21 03:02:01;;;;;;;14.75;2.45;;;7.20;81.10;;;;;;6151947;22;98468;-78
2022/02/21 03:04:28;;;;;;;12.65;2.67;;;7.20;81.30;;;;;;6125114;22;98544;-79
2022/02/21 03:06:58;;;;;;;15.90;2.88;;;7.20;81.60;;;;;;6151729;22;99344;-79
2022/02/21 03:09:26;;;;;;;11.18;2.60;;;7.20;81.50;;;;;;6101670;22;99122;-79
2022/02/21 03:11:54;;;;;;;13.85;2.65;;;7.10;81.00;;;;;;6126032;22;98596;-79
2022/02/21 03:14:22;;;;;;;9.77;2.20;;;7.10;81.70;;;;;;6151942;22;98529;-79
2022/02/21 03:16:49;;;;;;;12.73;2.97;;;7.00;81.80;;;;;;6151200;22;99775;-79
2022/02/21 03:19:16;;;;;;;18.55;3.30;;;7.00;81.80;;;;;;6150693;22;99786;-79
2022/02/21 03:21:43;;;;;;;14.02;2.83;;;6.90;81.40;;;;;;6152266;22;98912;-79
2022/02/21 03:24:10;;;;;;;14.65;3.03;;;6.90;80.90;;;;;;6152035;22;99214;-79
2022/02/21 03:26:37;;;;;;;14.07;2.78;;;6.80;80.40;;;;;;6150866;22;117953;-79
2022/02/21 03:29:04;;;;;;;15.93;3.28;;;6.80;80.80;;;;;;6151618;22;99016;-78
2022/02/21 03:31:31;;;;;;;17.23;2.80;;;6.80;80.90;;;;;;6125260;22;99035;-78
2022/02/21 03:33:58;;;;;;;13.73;3.20;;;6.70;80.80;;;;;;6125748;22;97797;-79
2022/02/21 03:36:25;;;;;;;11.50;1.95;;;6.80;80.90;;;;;;6124994;22;99197;-79
2022/02/21 03:38:52;;;;;;;10.30;3.10;;;6.80;81.50;;;;;;6151369;22;98716;-79
2022/02/21 03:41:19;;;;;;;25.35;3.17;;;6.80;82.40;;;;;;6151423;22;99754;-79
2022/02/21 03:43:46;;;;;;;8.05;1.83;;;6.90;83.50;;;;;;6125650;22;98504;-78
2022/02/21 03:46:13;;;;;;;14.68;2.83;;;6.90;83.80;;;;;;6124937;22;101670;-79
2022/02/21 03:48:40;;;;;;;11.23;2.83;;;6.80;84.20;;;;;;6151508;22;98968;-78
2022/02/21 03:51:07;;;;;;;18.02;2.95;;;6.80;84.70;;;;;;6101132;22;98459;-79
2022/02/21 03:53:34;;;;;;;17.25;3.90;;;6.80;84.90;;;;;;6151610;22;98487;-79
2022/02/21 03:56:01;;;;;;;11.38;2.28;;;6.70;85.10;;;;;;6124701;22;101714;-79
2022/02/21 03:58:28;;;;;;;13.93;2.88;;;6.60;86.00;;;;;;6151690;22;98981;-79
2022/02/21 04:00:54;;;;;;;15.82;3.35;;;6.60;86.10;;;;;;6125012;22;98378;-79
2022/02/21 04:03:21;;;;;;;11.98;2.22;;;6.60;85.90;;;;;;6125082;22;98470;-79
2022/02/21 04:05:48;;;;;;;12.52;3.00;;;6.60;85.60;;;;;;6150395;22;99929;-79
2022/02/21 04:08:18;;;;;;;16.67;3.15;;;6.50;85.40;;;;;;6125668;22;100052;-78
2022/02/21 04:10:45;;;;;;;19.60;3.40;;;6.50;85.10;;;;;;6152025;22;98377;-79
2022/02/21 04:13:12;;;;;;;18.88;2.90;;;6.50;85.30;;;;;;6125532;22;98537;-79
2022/02/21 04:15:39;;;;;;;11.98;2.95;;;6.50;85.30;;;;;;6124342;22;105881;-79
2022/02/21 04:18:06;;;;;;;10.95;2.35;;;6.40;85.00;;;;;;6124697;22;101582;-79
2022/02/21 04:20:34;;;;;;;11.23;2.60;;;6.50;84.90;;;;;;6151728;22;99486;-79
2022/02/21 04:23:01;;;;;;;19.10;3.50;;;6.50;84.90;;;;;;6151499;22;106897;-78
2022/02/21 04:25:28;;;;;;;15.82;3.22;;;6.50;83.90;;;;;;6124471;22;100400;-79
2022/02/21 04:27:56;;;;;;;20.02;3.85;;;6.60;84.00;;;;;;6124592;22;101540;-78
2022/02/21 04:30:25;;;;;;;13.10;3.53;;;6.50;83.10;;;;;;6124978;22;99305;-79
2022/02/21 04:32:53;;;;;;;9.82;2.38;;;6.60;82.20;;;;;;6151819;22;98539;-79
2022/02/21 04:35:22;;;;;;;9.88;2.45;;;6.50;81.00;;;;;;6151343;22;99377;-79
2022/02/21 04:37:49;;;;;;;12.38;2.30;;;6.40;80.40;;;;;;6151249;22;99626;-79
2022/02/21 04:40:27;;;;;;;9.15;2.50;;;6.40;81.00;;;;;;6100361;22;98474;-78
2022/02/21 04:42:56;;;;;;;12.20;2.28;;;6.40;80.60;;;;;;6125135;22;98513;-78
2022/02/21 04:45:27;;;;;;;12.02;2.50;;;6.30;80.10;;;;;;6124350;22;101797;-79
2022/02/21 04:47:54;;;;;;;11.52;2.55;;;6.30;79.80;;;;;;6124252;22;117988;-79
2022/02/21 04:50:21;;;;;;;18.20;3.47;;;6.30;81.00;;;;;;6124818;22;98524;-79
2022/02/21 04:52:48;;;;;;;10.60;2.58;;;6.30;80.10;;;;;;6151810;22;98444;-79
2022/02/21 04:55:15;;;;;;;13.80;3.80;;;6.20;80.00;;;;;;6150618;22;99969;-79
2022/02/21 04:57:42;;;;;;;20.33;3.22;;;6.30;80.40;;;;;;6124443;22;99520;-79
2022/02/21 05:00:11;;;;;;;13.10;2.47;;;6.30;80.20;;;;;;6151763;22;98553;-79
2022/02/21 05:02:38;;;;;;;16.52;3.70;;;6.30;79.90;;;;;;6151327;22;98447;-78
2022/02/21 05:05:10;;;;;;;13.02;2.80;;;6.40;80.10;;;;;;6150777;22;99372;-78
2022/02/21 05:07:43;;;;;;;13.73;2.88;;;6.40;79.70;;;;;;6125464;22;98968;-79
2022/02/21 05:10:11;;;;;;;14.48;2.65;;;6.40;80.10;;;;;;6151783;22;98480;-78
2022/02/21 05:12:38;;;;;;;10.48;2.33;;;6.40;80.00;;;;;;6151758;22;98160;-79
2022/02/21 05:15:06;;;;;;;11.27;2.42;;;6.40;80.00;;;;;;6124249;22;102115;-78
2022/02/21 05:17:34;;;;;;;10.20;2.40;;;6.40;80.10;;;;;;6150755;22;98948;-79
2022/02/21 05:20:02;;;;;;;19.58;4.00;;;6.40;80.70;;;;;;6124629;22;99189;-79
2022/02/21 05:22:29;;;;;;;18.13;3.58;;;6.40;81.10;;;;;;6151162;22;98422;-78
2022/02/21 05:24:56;;;;;;;12.55;3.10;;;6.30;81.30;;;;;;6124757;22;99144;-78
2022/02/21 05:27:23;;;;;;;12.10;2.67;;;6.40;81.80;;;;;;6124027;22;100544;-79
2022/02/21 05:29:50;;;;;;;11.60;2.95;;;6.40;82.40;;;;;;6124826;22;98516;-78
2022/02/21 05:32:17;;;;;;;10.57;2.70;;;6.40;82.40;;;;;;6099966;22;98559;-78
2022/02/21 05:34:45;;;;;;;16.80;3.13;;;6.40;82.60;;;;;;6150685;22;99224;-78
2022/02/21 05:37:12;;;;;;;18.40;3.22;;;6.40;82.30;;;;;;6124320;22;104178;-78
2022/02/21 05:39:39;;;;;;;11.18;2.60;;;6.40;82.20;;;;;;6150978;22;98387;-78
2022/02/21 05:42:06;;;;;;;14.48;2.45;;;6.40;82.20;;;;;;6151049;22;98510;-78
2022/02/21 05:44:33;;;;;;;19.80;3.15;;;6.50;82.20;;;;;;6123275;22;102202;-78
2022/02/21 05:47:00;;;;;;;10.27;2.53;;;6.50;82.20;;;;;;6150647;22;99625;-79
2022/02/21 05:49:27;;;;;;;13.48;3.58;;;6.50;82.20;;;;;;6151099;22;98435;-78
2022/02/21 05:51:54;;;;;;;15.90;2.90;;;6.50;82.60;;;;;;6150689;22;98492;-78
2022/02/21 05:54:21;;;;;;;11.60;2.53;;;6.50;82.70;;;;;;6124234;22;99211;-78
2022/02/21 05:56:49;;;;;;;12.45;2.20;;;6.50;83.50;;;;;;6123368;22;101613;-78
2022/02/21 05:59:17;;;;;;;14.32;3.42;;;6.60;83.60;;;;;;6124297;22;98491;-78
2022/02/21 06:01:44;;;;;;;15.07;2.58;;;6.50;83.30;;;;;;6100824;22;97707;-78
2022/02/21 06:04:11;;;;;;;14.35;3.05;;;6.50;83.90;;;;;;6125123;22;99347;-78
2022/02/21 06:06:41;;;;;;;14.20;2.63;;;6.50;83.70;;;;;;6116740;22;98848;-78
2022/02/21 06:09:08;;;;;;;9.98;2.47;;;6.50;83.20;;;;;;6152082;22;99104;-78
2022/02/21 06:11:35;;;;;;;15.18;2.70;;;6.50;83.70;;;;;;6125251;22;98584;-78
2022/02/21 06:14:02;;;;;;;12.85;3.03;;;6.50;82.80;;;;;;6151998;22;99267;-78
2022/02/21 06:16:29;;;;;;;12.73;2.80;;;6.60;82.60;;;;;;6152243;22;98978;-78
2022/02/21 06:18:56;;;;;;;10.73;2.65;;;6.60;82.50;;;;;;6125725;22;98504;-78
2022/02/21 06:21:23;;;;;;;13.45;3.42;;;6.70;82.30;;;;;;6100735;22;98498;-78
2022/02/21 06:23:50;;;;;;;12.35;2.75;;;6.70;81.40;;;;;;6151741;22;100646;-78
2022/02/21 06:26:17;;;;;;;15.52;2.90;;;6.70;81.40;;;;;;6152333;22;99002;-78
2022/02/21 06:28:44;;;;;;;11.65;2.15;;;6.70;81.80;;;;;;6125499;22;98551;-78
2022/02/21 06:31:11;;;;;;;13.55;2.90;;;6.70;81.70;;;;;;6152005;22;98421;-78
2022/02/21 06:33:38;;;;;;;13.30;2.70;;;6.80;81.30;;;;;;6124232;22;101165;-79
2022/02/21 06:36:06;;;;;;;9.85;2.80;;;6.70;81.10;;;;;;6151811;22;99714;-78
2022/02/21 06:38:33;;;;;;;11.57;2.83;;;6.70;81.00;;;;;;6126029;22;98547;-79
2022/02/21 06:41:00;;;;;;;11.32;3.40;;;6.70;81.30;;;;;;6152021;22;98802;-79
2022/02/21 06:43:27;;;;;;;10.70;2.75;;;6.80;82.10;;;;;;6125424;22;101737;-79
2022/02/21 06:45:54;;;;;;;13.05;2.60;;;6.80;81.80;;;;;;6151553;22;98931;-78
2022/02/21 06:48:22;;;;;;;11.35;2.35;;;6.80;82.50;;;;;;6125442;22;98541;-78
2022/02/21 06:50:49;;;;;;;10.55;3.03;;;6.80;82.00;;;;;;6101705;22;97783;-79
2022/02/21 06:53:16;;;;;;;15.00;2.75;;;6.80;81.90;;;;;;6151593;22;99119;-79
2022/02/21 06:55:43;;;;;;;14.15;2.55;;;6.80;82.20;;;;;;6124604;22;102076;-79
2022/02/21 06:58:11;;;;;;;9.63;2.17;;;6.80;81.70;;;;;;6100607;22;99843;-79
2022/02/21 07:00:38;;;;;;;13.90;3.25;;;6.90;81.30;;;;;;6125457;22;98528;-79
2022/02/21 07:03:06;;;;;;;13.80;2.50;;;6.80;81.60;;;;;;6125121;22;99821;-79
2022/02/21 07:05:33;;;;;;;15.70;2.63;;;6.80;81.80;;;;;;6151141;22;98965;-79
2022/02/21 07:07:59;;;;;;;10.05;2.38;;;6.90;82.00;;;;;;6125590;22;98559;-79
2022/02/21 07:10:26;;;;;;;15.60;2.55;;;6.90;81.80;;;;;;6125816;22;98574;-79
2022/02/21 07:12:53;;;;;;;10.88;2.55;;;6.90;81.70;;;;;;6124777;22;99187;-79
2022/02/21 07:15:23;;;;;;;11.48;3.53;;;6.90;81.60;;;;;;6124368;22;112227;-79
2022/02/21 07:17:49;;;;;;;9.40;2.55;;;7.00;81.70;;;;;;6151563;22;98573;-79
2022/02/21 07:20:17;;;;;;;13.43;2.45;;;7.00;80.70;;;;;;6151780;22;98439;-79
2022/02/21 07:22:45;;;;;;;16.90;3.03;;;7.00;80.50;;;;;;6151054;22;99848;-79
2022/02/21 07:25:15;;;;;;;13.02;2.60;;;7.00;80.80;;;;;;6125395;22;99781;-79
2022/02/21 07:27:49;;;;;;;13.27;2.13;;;7.00;80.70;;;;;;6125835;22;98504;-79
2022/02/21 07:30:18;;;;;;;11.45;3.03;;;7.00;81.20;;;;;;6152146;22;98422;-79
2022/02/21 07:32:46;;;;;;;15.15;2.67;;;7.00;80.90;;;;;;6124436;22;101720;-79
2022/02/21 07:35:13;;;;;;;10.68;2.83;;;7.10;80.70;;;;;;6151561;22;98999;-79
2022/02/21 07:37:40;;;;;;;13.30;2.53;;;7.10;80.30;;;;;;6152095;22;98773;-79
2022/02/21 07:40:08;;;;;;;9.65;2.35;;;7.10;80.40;;;;;;6125414;22;97806;-79
2022/02/21 07:42:36;;;;;;;12.60;3.25;;;7.10;80.30;;;;;;6125042;22;99252;-79
2022/02/21 07:45:04;;;;;;;13.75;3.03;;;7.20;80.20;;;;;;6124511;22;101542;-79
2022/02/21 07:47:31;;;;;;;12.32;2.72;;;7.20;80.50;;;;;;6124933;22;99693;-79
2022/02/21 07:49:58;;;;;;;14.90;2.22;;;7.10;79.50;;;;;;6151679;22;98436;-79
2022/02/21 07:52:26;;;;;;;15.98;3.38;;;7.10;79.20;;;;;;6151477;22;99139;-79
2022/02/21 07:54:53;;;;;;;12.27;2.35;;;7.10;79.60;;;;;;6151205;22;98954;-79
2022/02/21 07:57:20;;;;;;;15.80;3.08;;;7.10;80.00;;;;;;6125824;22;98971;-79
2022/02/21 07:59:47;;;;;;;13.25;2.50;;;7.20;79.50;;;;;;6151936;22;98495;-79
2022/02/21 08:02:14;;;;;;;15.45;4.28;;;7.20;79.80;;;;;;6124826;22;99312;-79
2022/02/21 08:04:41;;;;;;;11.88;2.72;;;7.30;79.40;;;;;;6125637;22;98973;-79
2022/02/21 08:07:08;;;;;;;15.27;3.47;;;7.30;79.90;;;;;;6124730;22;98469;-79
2022/02/21 08:09:35;;;;;;;15.77;3.17;;;7.30;79.90;;;;;;6151810;22;98460;-79
2022/02/21 08:12:06;;;;;;;10.63;2.83;;;7.40;78.90;;;;;;6150614;22;99941;-79
2022/02/21 08:14:35;;;;;;;27.63;3.47;;;7.40;78.90;;;;;;6151350;22;99633;-79
2022/02/21 08:17:02;;;;;;;14.63;2.97;;;7.40;78.20;;;;;;6125172;22;98489;-79
2022/02/21 08:19:29;;;;;;;16.90;3.72;;;7.40;79.20;;;;;;6125232;22;98539;-79
2022/02/21 08:21:56;;;;;;;10.90;2.85;;;7.40;79.00;;;;;;6150955;22;99844;-79
2022/02/21 08:24:25;;;;;;;19.67;3.65;;;7.40;80.10;;;;;;6151323;22;99002;-79
2022/02/21 08:26:52;;;;;;;18.48;4.03;;;7.40;79.50;;;;;;6125602;22;98552;-79
2022/02/21 08:29:19;;;;;;;16.38;3.17;;;7.40;79.90;;;;;;6152059;22;98070;-79
2022/02/21 08:31:48;;;;;;;12.90;3.03;;;7.40;79.40;;;;;;6099741;22;100199;-79
2022/02/21 08:34:16;;;;;;;8.75;3.00;;;7.50;79.60;;;;;;6125355;22;99167;-79
2022/02/21 08:36:43;;;;;;;14.57;3.40;;;7.50;79.70;;;;;;6151363;22;99175;-79
2022/02/21 08:39:10;;;;;;;19.67;4.22;;;7.50;80.50;;;;;;6075688;22;98574;-79
2022/02/21 08:41:37;;;;;;;17.35;3.80;;;7.50;81.20;;;;;;6151231;22;99378;-79
2022/02/21 08:44:05;;;;;;;14.25;3.00;;;7.50;81.40;;;;;;6124612;22;99074;-79
2022/02/21 08:46:32;;;;;;;17.88;3.38;;;7.50;81.80;;;;;;6099694;22;100039;-79
2022/02/21 08:49:05;;;;;;;12.02;2.90;;;7.40;81.90;;;;;;6125819;22;98409;-79
2022/02/21 08:51:33;;;;;;;15.98;2.55;;;7.40;82.70;;;;;;6124755;22;101769;-79
2022/02/21 08:54:00;;;;;;;11.85;2.42;;;7.40;83.00;;;;;;6125145;22;98957;-79
2022/02/21 08:56:32;;;;;;;12.18;2.45;;;7.30;84.30;;;;;;6151740;22;98440;-79
2022/02/21 08:58:59;;;;;;;16.20;2.80;;;7.30;85.60;;;;;;6124666;22;99522;-79
2022/02/21 09:01:26;;;;;;;19.23;3.20;;;7.20;85.30;;;;;;6123613;22;102578;-79
2022/02/21 09:03:53;;;;;;;17.02;3.75;;;7.10;86.20;;;;;;6124811;22;99659;-79
2022/02/21 09:06:20;;;;;;;16.63;3.60;;;7.10;86.70;;;;;;6150823;22;98831;-79
2022/02/21 09:08:47;;;;;;;17.30;3.25;;;7.00;87.80;;;;;;6124717;22;98501;-79
2022/02/21 09:11:14;;;;;;;17.10;2.85;;;6.90;88.70;;;;;;6150730;22;99353;-79
2022/02/21 09:13:41;;;;;;;18.55;2.90;;;6.90;89.10;;;;;;6151035;22;99000;-79
2022/02/21 09:16:08;;;;;;;19.58;3.85;;;6.80;89.00;;;;;;6124342;22;98415;-79
2022/02/21 09:18:35;;;;;;;11.48;2.20;;;6.70;89.30;;;;;;6151929;22;97769;-79
2022/02/21 09:21:02;;;;;;;9.30;2.20;;;6.60;89.80;;;;;;6099438;22;101957;-79
2022/02/21 09:23:29;;;;;;;7.28;1.52;;;6.50;89.70;;;;;;6124398;22;98767;-79
2022/02/21 09:25:56;;;;;;;3.63;1.35;;;6.40;89.80;;;;;;6100151;22;99172;-79
2022/02/21 09:28:23;;;;;;;7.15;1.90;;;6.30;89.90;;;;;;6151132;22;98419;-79
2022/02/21 09:30:53;;;;;;;9.77;1.60;;;6.20;90.10;;;;;;6124001;22;102165;-78
2022/02/21 09:33:21;;;;;;;4.43;1.35;;;6.10;90.20;;;;;;6123553;22;101415;-79
2022/02/21 09:35:49;;;;;;;6.85;1.33;;;6.00;90.50;;;;;;6124827;22;98543;-79
2022/02/21 09:38:16;;;;;;;3.45;1.35;;;5.90;90.60;;;;;;6151918;22;98482;-79
2022/02/21 09:40:46;;;;;;;3.65;1.17;;;5.90;90.50;;;;;;6124058;22;101660;-79
2022/02/21 09:43:13;;;;;;;5.53;1.30;;;5.90;91.00;;;;;;6125385;22;98829;-79
2022/02/21 09:45:43;;;;;;;5.50;1.38;;;5.90;90.90;;;;;;6152469;22;98960;-79
2022/02/21 09:48:15;;;;;;;4.22;1.50;;;5.90;90.80;;;;;;6125320;22;98557;-79
2022/02/21 09:50:45;;;;;;;4.95;1.90;;;5.90;90.90;;;;;;6151521;22;100143;-79
2022/02/21 09:53:12;;;;;;;7.90;1.42;;;5.90;90.60;;;;;;6125282;22;99823;-79
2022/02/21 09:55:42;;;;;;;3.97;1.13;;;5.90;90.50;;;;;;6126021;22;98435;-79
2022/02/21 09:58:09;;;;;;;3.90;1.40;;;5.90;90.40;;;;;;6152041;22;98541;-79
2022/02/21 10:00:36;;;;;;;3.70;1.00;;;5.90;90.40;;;;;;6125087;22;101855;-79
2022/02/21 10:03:04;;;;;;;2.10;0.95;;;5.90;90.50;;;;;;6101030;22;99040;-79
2022/02/21 10:05:32;;;;;;;1.73;0.90;;;6.00;90.40;;;;;;6151082;22;100669;-79
2022/02/21 10:08:04;;;;;;;3.22;0.90;;;6.10;90.40;;;;;;6126971;22;98293;-79
2022/02/21 10:10:36;;;;;;;3.08;0.98;;;6.20;90.30;;;;;;6124852;22;101676;-79
2022/02/21 10:13:06;;;;;;;1.67;0.90;;;6.30;90.00;;;;;;6151984;22;98879;-79
2022/02/21 10:15:36;;;;;;;2.58;0.80;;;6.20;90.00;;;;;;6151616;22;99183;-79
2022/02/21 10:18:12;;;;;;;1.10;0.80;;;6.20;89.90;;;;;;6152386;22;98363;-79
2022/02/21 10:20:58;;;;;;;1.80;0.93;;;6.20;89.70;;;;;;6151943;22;99976;-79
2022/02/21 10:23:30;;;;;;;1.77;0.95;;;6.30;89.40;;;;;;6150423;22;98823;-79
2022/02/21 10:26:01;;;;;;;3.60;1.10;;;6.30;88.90;;;;;;6152157;22;98369;-79
2022/02/21 10:28:31;;;;;;;3.38;1.00;;;6.20;88.20;;;;;;6151810;22;98423;-79
2022/02/21 10:31:13;;;;;;;1.67;0.80;;;6.10;88.30;;;;;;6100183;22;101029;-79
2022/02/21 10:33:59;;;;;;;1.42;1.00;;;6.10;87.80;;;;;;6125391;22;101475;-79
2022/02/21 10:36:33;;;;;;;2.00;0.90;;;6.00;87.70;;;;;;6125337;22;98519;-79
2022/02/21 10:39:00;;;;;;;;;;;5.90;87.80;;;;;;6126134;22;98609;-79
2022/02/21 10:41:41;;;;;;;2.50;1.55;;;5.70;88.20;;;;;;6152237;22;100019;-79
2022/02/21 10:44:14;;;;;;;2.42;1.05;;;5.70;88.10;;;;;;6151665;22;99755;-79
2022/02/21 10:46:44;;;;;;;1.57;0.90;;;5.70;88.70;;;;;;6125312;22;98534;-79
2022/02/21 10:49:12;;;;;;;2.72;0.98;;;5.60;89.60;;;;;;6151818;22;98458;-79
2022/02/21 10:51:46;;;;;;;2.45;0.90;;;5.70;89.30;;;;;;6100669;22;99275;-79
2022/02/21 10:54:13;;;;;;;3.15;1.50;;;5.70;89.00;;;;;;6151694;22;98888;-79
2022/02/21 10:56:41;;;;;;;2.03;1.02;;;5.70;88.90;;;;;;6152335;22;98746;-79
2022/02/21 10:59:17;;;;;;;1.45;0.80;;;5.70;88.90;;;;;;6125859;22;97758;-79
2022/02/21 11:01:44;;;;;;;0.90;0.80;;;5.70;89.60;;;;;;6102761;22;101752;-78
2022/02/21 11:04:12;;;;;;;1.13;0.90;;;5.70;89.30;;;;;;6151635;22;98904;-79
2022/02/21 11:06:40;;;;;;;2.50;0.60;;;5.70;89.30;;;;;;6151294;22;99247;-79
2022/02/21 11:09:12;;;;;;;1.67;0.63;;;5.70;88.80;;;;;;6125363;22;98632;-79
2022/02/21 11:11:49;;;;;;;0.98;0.45;;;5.60;88.90;;;;;;6151450;22;99214;-79
2022/02/21 11:14:26;;;;;;;3.00;0.68;;;5.70;88.90;;;;;;6125237;22;101727;-79
2022/02/21 11:16:56;;;;;;;0.88;0.60;;;5.60;88.90;;;;;;6125816;22;98470;-78
2022/02/21 11:19:23;;;;;;;0.70;0.70;;;5.60;88.70;;;;;;6151792;22;98444;-78
2022/02/21 11:21:51;;;;;;;0.88;0.50;;;5.60;88.40;;;;;;6125439;22;99240;-78
2022/02/21 11:24:21;;;;;;;1.08;0.60;;;5.60;88.40;;;;;;6125053;22;101840;-78
2022/02/21 11:27:15;;;;;;;0.73;0.70;;;5.50;88.00;;;;;;6152277;22;98761;-78
2022/02/21 11:30:03;;;;;;;0.73;0.68;;;5.50;87.70;;;;;;6125547;22;98500;-78
2022/02/21 11:32:30;;;;;;;0.57;0.57;;;5.40;87.70;;;;;;6124458;22;100126;-78
2022/02/21 11:35:18;;;;;;;1.05;0.70;;;5.40;87.90;;;;;;6100625;22;99712;-78
2022/02/21 11:37:46;;;;;;;1.25;0.57;;;5.40;88.00;;;;;;6151987;22;98549;-78
2022/02/21 11:40:14;;;;;;;0.52;0.50;;;5.40;87.70;;;;;;6125617;22;98484;-78
2022/02/21 11:42:48;;;;;;;0.70;0.70;;;5.30;87.90;;;;;;6151384;22;99494;-78
2022/02/21 11:45:28;;;;;;;0.60;0.60;;;5.30;87.90;;;;;;6151443;22;98872;-78
2022/02/21 11:48:06;;;;;;;1.02;0.60;;;5.30;88.60;;;;;;6152192;22;98938;-78
2022/02/21 11:50:33;;;;;;;1.15;0.40;;;5.40;89.20;;;;;;6125598;22;97767;-78
2022/02/21 11:53:29;;;;;;;1.65;0.90;;;5.40;89.80;;;;;;6100525;22;99219;-78
2022/02/21 11:55:57;;;;;;;0.77;0.77;;;5.50;90.10;;;;;;6151534;22;99036;-78
2022/02/21 11:58:24;;;;;;;1.73;0.93;;;5.50;90.10;;;;;;6124572;22;99707;-79
2022/02/21 12:00:52;;;;;;;1.55;0.70;;;5.50;90.40;;;;;;6151915;22;98500;-78
2022/02/21 12:03:21;;;;;;;1.55;0.60;;;5.50;90.40;;;;;;6150947;22;99299;-78
2022/02/21 12:05:57;;;;;;;2.50;1.00;;;5.60;90.70;;;;;;6123877;22;101396;-78
2022/02/21 12:08:38;;;;;;;2.35;1.05;;;5.60;91.00;;;;;;6128339;22;98453;-78
2022/02/21 12:11:07;;;;;;;2.83;0.90;;;5.70;91.20;;;;;;6125040;22;99410;-78
2022/02/21 12:13:37;;;;;;;3.40;1.17;;;5.70;91.30;;;;;;6151070;22;99312;-78
2022/02/21 12:16:09;;;;;;;1.98;1.02;;;5.80;91.50;;;;;;6124855;22;101536;-78
2022/02/21 12:18:41;;;;;;;4.55;0.90;;;5.90;91.50;;;;;;6100920;22;98712;-78
2022/02/21 12:21:19;;;;;;;2.88;1.10;;;6.10;91.70;;;;;;6151698;22;98461;-78
2022/02/21 12:23:55;;;;;;;3.50;1.17;;;6.20;91.80;;;;;;6123805;22;102483;-78
2022/02/21 12:26:22;;;;;;;1.70;1.15;;;6.40;91.70;;;;;;6124680;22;102516;-78
2022/02/21 12:29:13;;;;;;;4.97;1.85;;;6.50;91.70;;;;;;6151531;22;98400;-78
2022/02/21 12:31:45;;;;;;;4.32;1.40;;;6.60;91.50;;;;;;6125079;22;98568;-79
2022/02/21 12:34:14;;;;;;;4.88;1.95;;;6.60;91.50;;;;;;6151389;22;99069;-78
2022/02/21 12:36:44;;;;;;;4.30;1.95;;;6.70;91.50;;;;;;6151011;22;99038;-78
2022/02/21 12:39:13;;;;;;;4.05;1.83;;;6.70;91.60;;;;;;6100192;22;98392;-78
2022/02/21 12:41:42;;;;;;;5.00;2.10;;;6.80;91.60;;;;;;6151172;22;98188;-78
2022/02/21 12:44:12;;;;;;;7.63;2.72;;;6.90;92.00;;;;;;6100419;22;101645;-78
2022/02/21 12:46:46;;;;;;;9.40;1.85;;;7.00;92.20;;;;;;6124568;22;98944;-78
2022/02/21 12:49:19;;;;;;;;;;;7.10;91.70;;;;;;6151739;22;99249;-78
2022/02/21 12:51:58;;;;;;;6.78;2.30;;;7.10;91.70;;;;;;6126319;22;98489;-78
2022/02/21 12:54:25;;;;;;;7.78;2.00;;;7.30;91.80;;;;;;6151223;22;99352;-78